sensor_id;sensor_type;location;lat;lon;timestamp;pressure;altitude;pressure_sealevel;temperature;humidity
72210;BME280;60113;48.762;12.302;2023-08-30T00:01:14;96530.84;;;10.92;100.00
72210;BME280;60113;48.762;12.302;2023-08-30T00:03:48;96523.81;;;10.92;100.00
72210;BME280;60113;48.762;12.302;2023-08-30T00:06:13;96523.09;;;10.90;100.00
72210;BME280;60113;48.762;12.302;2023-08-30T00:08:40;96530.97;;;10.90;100.00
72210;BME280;60113;48.762;12.302;2023-08-30T00:11:14;96541.50;;;10.90;100.00
72210;BME280;60113;48.762;12.302;2023-08-30T00:13:40;96536.25;;;10.90;100.00
72210;BME280;60113;48.762;12.302;2023-08-30T00:16:21;96533.59;;;10.90;100.00
72210;BME280;60113;48.762;12.302;2023-08-30T00:19:01;96527.69;;;10.88;100.00
72210;BME280;60113;48.762;12.302;2023-08-30T00:21:27;96530.97;;;10.90;100.00
72210;BME280;60113;48.762;12.302;2023-08-30T00:23:53;96537.91;;;10.91;100.00
72210;BME280;60113;48.762;12.302;2023-08-30T00:26:18;96543.03;;;10.93;100.00
72210;BME280;60113;48.762;12.302;2023-08-30T00:28:47;96540.28;;;10.94;100.00
72210;BME280;60113;48.762;12.302;2023-08-30T00:31:12;96540.94;;;10.96;100.00
72210;BME280;60113;48.762;12.302;2023-08-30T00:33:37;96538.03;;;10.99;100.00
72210;BME280;60113;48.762;12.302;2023-08-30T00:36:15;96545.00;;;11.00;100.00
72210;BME280;60113;48.762;12.302;2023-08-30T00:38:42;96547.34;;;11.04;100.00
72210;BME280;60113;48.762;12.302;2023-08-30T00:41:26;96547.22;;;11.05;100.00
72210;BME280;60113;48.762;12.302;2023-08-30T00:43:55;96546.22;;;11.06;100.00
72210;BME280;60113;48.762;12.302;2023-08-30T00:46:20;96550.38;;;11.09;100.00
72210;BME280;60113;48.762;12.302;2023-08-30T00:48:48;96553.84;;;11.09;100.00
72210;BME280;60113;48.762;12.302;2023-08-30T00:51:14;96552.06;;;11.10;100.00
72210;BME280;60113;48.762;12.302;2023-08-30T00:53:40;96553.69;;;11.11;100.00
72210;BME280;60113;48.762;12.302;2023-08-30T00:56:05;96550.94;;;11.12;100.00
72210;BME280;60113;48.762;12.302;2023-08-30T00:58:49;96554.28;;;11.15;100.00
72210;BME280;60113;48.762;12.302;2023-08-30T01:01:17;96554.94;;;11.17;100.00
72210;BME280;60113;48.762;12.302;2023-08-30T01:03:52;96557.44;;;11.18;100.00
72210;BME280;60113;48.762;12.302;2023-08-30T01:06:23;96559.94;;;11.20;100.00
72210;BME280;60113;48.762;12.302;2023-08-30T01:08:53;96550.09;;;11.22;100.00
72210;BME280;60113;48.762;12.302;2023-08-30T01:11:40;96561.06;;;11.27;100.00
72210;BME280;60113;48.762;12.302;2023-08-30T01:14:15;96561.06;;;11.27;100.00
72210;BME280;60113;48.762;12.302;2023-08-30T01:16:44;96557.44;;;11.28;100.00
72210;BME280;60113;48.762;12.302;2023-08-30T01:19:25;96555.53;;;11.30;100.00
72210;BME280;60113;48.762;12.302;2023-08-30T01:25:05;96549.41;;;11.30;100.00
72210;BME280;60113;48.762;12.302;2023-08-30T01:27:35;96553.97;;;11.28;100.00
72210;BME280;60113;48.762;12.302;2023-08-30T01:30:09;96546.09;;;11.28;100.00
72210;BME280;60113;48.762;12.302;2023-08-30T01:32:45;96548.03;;;11.25;100.00
72210;BME280;60113;48.762;12.302;2023-08-30T01:35:12;96544.72;;;11.23;100.00
72210;BME280;60113;48.762;12.302;2023-08-30T01:37:44;96550.09;;;11.22;100.00
72210;BME280;60113;48.762;12.302;2023-08-30T01:40:11;96555.50;;;11.20;100.00
72210;BME280;60113;48.762;12.302;2023-08-30T01:42:56;96555.66;;;11.19;100.00
72210;BME280;60113;48.762;12.302;2023-08-30T01:45:29;96553.16;;;11.17;100.00
72210;BME280;60113;48.762;12.302;2023-08-30T01:48:03;96552.31;;;11.17;100.00
72210;BME280;60113;48.762;12.302;2023-08-30T01:50:31;96561.19;;;11.16;100.00
72210;BME280;60113;48.762;12.302;2023-08-30T01:52:56;96554.28;;;11.15;100.00
72210;BME280;60113;48.762;12.302;2023-08-30T01:55:22;96559.66;;;11.13;100.00
72210;BME280;60113;48.762;12.302;2023-08-30T01:57:50;96550.09;;;11.12;100.00
72210;BME280;60113;48.762;12.302;2023-08-30T02:00:21;96547.59;;;11.10;100.00
72210;BME280;60113;48.762;12.302;2023-08-30T02:02:48;96558.13;;;11.10;100.00
72210;BME280;60113;48.762;12.302;2023-08-30T02:05:32;96553.97;;;11.08;100.00
72210;BME280;60113;48.762;12.302;2023-08-30T02:08:09;96557.44;;;11.08;100.00
72210;BME280;60113;48.762;12.302;2023-08-30T02:10:41;96558.53;;;11.06;100.00
72210;BME280;60113;48.762;12.302;2023-08-30T02:13:17;96560.34;;;11.05;100.00
72210;BME280;60113;48.762;12.302;2023-08-30T02:15:48;96561.28;;;11.04;100.00
72210;BME280;60113;48.762;12.302;2023-08-30T02:18:14;96556.19;;;11.03;100.00
72210;BME280;60113;48.762;12.302;2023-08-30T02:20:49;96555.38;;;11.02;100.00
72210;BME280;60113;48.762;12.302;2023-08-30T02:23:32;96554.53;;;11.02;100.00
72210;BME280;60113;48.762;12.302;2023-08-30T02:26:10;96554.66;;;11.00;100.00
72210;BME280;60113;48.762;12.302;2023-08-30T02:28:38;96555.50;;;11.00;100.00
72210;BME280;60113;48.762;12.302;2023-08-30T02:31:14;96561.69;;;10.99;100.00
72210;BME280;60113;48.762;12.302;2023-08-30T02:33:39;96561.69;;;10.99;100.00
72210;BME280;60113;48.762;12.302;2023-08-30T02:36:06;96558.25;;;10.99;100.00
72210;BME280;60113;48.762;12.302;2023-08-30T02:38:34;96560.06;;;10.98;100.00
72210;BME280;60113;48.762;12.302;2023-08-30T02:41:02;96553.16;;;10.97;100.00
72210;BME280;60113;48.762;12.302;2023-08-30T02:43:39;96553.94;;;10.98;100.00
72210;BME280;60113;48.762;12.302;2023-08-30T02:46:07;96553.16;;;10.97;100.00
72210;BME280;60113;48.762;12.302;2023-08-30T02:48:32;96552.31;;;10.97;100.00
72210;BME280;60113;48.762;12.302;2023-08-30T02:51:07;96560.19;;;10.97;100.00
72210;BME280;60113;48.762;12.302;2023-08-30T02:53:32;96555.91;;;10.96;100.00
72210;BME280;60113;48.762;12.302;2023-08-30T02:56:07;96556.84;;;10.95;100.00
72210;BME280;60113;48.762;12.302;2023-08-30T02:58:51;96550.78;;;10.94;100.00
72210;BME280;60113;48.762;12.302;2023-08-30T03:01:20;96555.19;;;10.94;100.00
72210;BME280;60113;48.762;12.302;2023-08-30T03:03:46;96555.34;;;10.92;100.00
72210;BME280;60113;48.762;12.302;2023-08-30T03:06:11;96543.31;;;10.90;100.00
72210;BME280;60113;48.762;12.302;2023-08-30T03:08:45;96547.72;;;10.89;100.00
72210;BME280;60113;48.762;12.302;2023-08-30T03:11:13;96546.88;;;10.88;100.00
72210;BME280;60113;48.762;12.302;2023-08-30T03:13:39;96550.50;;;10.87;100.00
72210;BME280;60113;48.762;12.302;2023-08-30T03:16:14;96545.22;;;10.87;100.00
72210;BME280;60113;48.762;12.302;2023-08-30T03:18:46;96557.53;;;10.87;100.00
72210;BME280;60113;48.762;12.302;2023-08-30T03:21:14;96557.66;;;10.85;100.00
72210;BME280;60113;48.762;12.302;2023-08-30T03:23:52;96544.53;;;10.85;100.00
72210;BME280;60113;48.762;12.302;2023-08-30T03:26:23;96554.22;;;10.85;100.00
72210;BME280;60113;48.762;12.302;2023-08-30T03:28:51;96540.38;;;10.83;100.00
72210;BME280;60113;48.762;12.302;2023-08-30T03:31:21;96543.84;;;10.83;100.00
72210;BME280;60113;48.762;12.302;2023-08-30T03:34:05;96557.13;;;10.82;100.00
72210;BME280;60113;48.762;12.302;2023-08-30T03:36:40;96555.44;;;10.81;100.00
72210;BME280;60113;48.762;12.302;2023-08-30T03:39:10;96559.75;;;10.82;100.00
72210;BME280;60113;48.762;12.302;2023-08-30T03:41:39;96567.78;;;10.80;100.00
72210;BME280;60113;48.762;12.302;2023-08-30T03:44:10;96563.34;;;10.81;100.00
72210;BME280;60113;48.762;12.302;2023-08-30T03:46:36;96556.44;;;10.80;100.00
72210;BME280;60113;48.762;12.302;2023-08-30T03:49:04;96559.91;;;10.80;100.00
72210;BME280;60113;48.762;12.302;2023-08-30T03:51:32;96561.69;;;10.80;100.00
72210;BME280;60113;48.762;12.302;2023-08-30T03:54:00;96557.25;;;10.80;100.00
72210;BME280;60113;48.762;12.302;2023-08-30T03:56:28;96555.44;;;10.81;100.00
72210;BME280;60113;48.762;12.302;2023-08-30T03:59:06;96561.69;;;10.80;100.00
72210;BME280;60113;48.762;12.302;2023-08-30T04:01:34;96552.16;;;10.79;100.00
72210;BME280;60113;48.762;12.302;2023-08-30T04:04:02;96559.06;;;10.80;100.00
72210;BME280;60113;48.762;12.302;2023-08-30T04:06:27;96562.66;;;10.79;100.00
72210;BME280;60113;48.762;12.302;2023-08-30T04:08:53;96563.59;;;10.78;100.00
72210;BME280;60113;48.762;12.302;2023-08-30T04:11:21;96566.22;;;10.78;100.00
72210;BME280;60113;48.762;12.302;2023-08-30T04:13:49;96559.19;;;10.78;100.00
72210;BME280;60113;48.762;12.302;2023-08-30T04:16:21;96568.84;;;10.78;100.00
72210;BME280;60113;48.762;12.302;2023-08-30T04:18:52;96562.78;;;10.77;100.00
72210;BME280;60113;48.762;12.302;2023-08-30T04:21:27;96564.56;;;10.77;100.00
72210;BME280;60113;48.762;12.302;2023-08-30T04:23:52;96555.84;;;10.76;100.00
72210;BME280;60113;48.762;12.302;2023-08-30T04:26:24;96561.25;;;10.74;100.00
72210;BME280;60113;48.762;12.302;2023-08-30T04:28:52;96558.63;;;10.74;100.00
72210;BME280;60113;48.762;12.302;2023-08-30T04:31:20;96557.81;;;10.74;100.00
72210;BME280;60113;48.762;12.302;2023-08-30T04:34:03;96556.13;;;10.73;100.00
72210;BME280;60113;48.762;12.302;2023-08-30T04:36:46;96562.34;;;10.72;100.00
72210;BME280;60113;48.762;12.302;2023-08-30T04:39:15;96562.50;;;10.70;100.00
72210;BME280;60113;48.762;12.302;2023-08-30T04:41:40;96566.09;;;10.69;100.00
72210;BME280;60113;48.762;12.302;2023-08-30T04:44:06;96567.75;;;10.70;100.00
72210;BME280;60113;48.762;12.302;2023-08-30T04:46:32;96569.53;;;10.70;100.00
72210;BME280;60113;48.762;12.302;2023-08-30T04:49:19;96571.34;;;10.69;100.00
72210;BME280;60113;48.762;12.302;2023-08-30T04:51:44;96577.41;;;10.70;100.00
72210;BME280;60113;48.762;12.302;2023-08-30T04:54:19;96572.16;;;10.70;100.00
72210;BME280;60113;48.762;12.302;2023-08-30T04:56:53;96574.66;;;10.71;100.00
72210;BME280;60113;48.762;12.302;2023-08-30T04:59:19;96573.56;;;10.74;100.00
72210;BME280;60113;48.762;12.302;2023-08-30T05:01:47;96572.59;;;10.75;100.00
72210;BME280;60113;48.762;12.302;2023-08-30T05:04:18;96575.09;;;10.77;100.00
72210;BME280;60113;48.762;12.302;2023-08-30T05:07:00;96574.97;;;10.78;100.00
72210;BME280;60113;48.762;12.302;2023-08-30T05:09:25;96574.81;;;10.80;100.00
72210;BME280;60113;48.762;12.302;2023-08-30T05:11:59;96571.22;;;10.81;100.00
72210;BME280;60113;48.762;12.302;2023-08-30T05:14:27;96569.28;;;10.83;100.00
72210;BME280;60113;48.762;12.302;2023-08-30T05:17:02;96566.41;;;10.86;100.00
72210;BME280;60113;48.762;12.302;2023-08-30T05:19:45;96565.28;;;10.88;100.00
72210;BME280;60113;48.762;12.302;2023-08-30T05:22:17;96564.19;;;10.91;100.00
72210;BME280;60113;48.762;12.302;2023-08-30T05:24:42;96557.44;;;10.98;100.00
72210;BME280;60113;48.762;12.302;2023-08-30T05:27:11;96568.38;;;11.04;100.00
72210;BME280;60113;48.762;12.302;2023-08-30T05:29:39;96565.34;;;11.08;100.00
72210;BME280;60113;48.762;12.302;2023-08-30T05:32:11;96563.38;;;11.10;100.00
72210;BME280;60113;48.762;12.302;2023-08-30T05:34:48;96560.19;;;11.17;100.00
72210;BME280;60113;48.762;12.302;2023-08-30T05:37:13;96566.03;;;11.20;100.00
72210;BME280;60113;48.762;12.302;2023-08-30T05:39:39;96568.38;;;11.23;100.00
72210;BME280;60113;48.762;12.302;2023-08-30T05:42:07;96574.06;;;11.29;100.00
72210;BME280;60113;48.762;12.302;2023-08-30T05:44:33;96564.09;;;11.32;100.00
72210;BME280;60113;48.762;12.302;2023-08-30T05:47:01;96561.19;;;11.35;100.00
72210;BME280;60113;48.762;12.302;2023-08-30T05:49:29;96569.50;;;11.41;100.00
72210;BME280;60113;48.762;12.302;2023-08-30T05:51:57;96566.44;;;11.45;100.00
72210;BME280;60113;48.762;12.302;2023-08-30T05:54:23;96564.22;;;11.50;100.00
72210;BME280;60113;48.762;12.302;2023-08-30T05:56:48;96570.88;;;11.55;100.00
72210;BME280;60113;48.762;12.302;2023-08-30T05:59:33;96573.22;;;11.58;100.00
72210;BME280;60113;48.762;12.302;2023-08-30T06:02:09;96577.09;;;11.63;100.00
72210;BME280;60113;48.762;12.302;2023-08-30T06:04:50;96574.72;;;11.70;100.00
72210;BME280;60113;48.762;12.302;2023-08-30T06:07:18;96576.66;;;11.78;100.00
72210;BME280;60113;48.762;12.302;2023-08-30T06:09:46;96576.09;;;11.84;100.00
72210;BME280;60113;48.762;12.302;2023-08-30T06:12:11;96573.84;;;11.90;100.00
72210;BME280;60113;48.762;12.302;2023-08-30T06:14:37;96580.38;;;11.95;100.00
72210;BME280;60113;48.762;12.302;2023-08-30T06:17:20;96583.00;;;11.95;100.00
72210;BME280;60113;48.762;12.302;2023-08-30T06:19:55;96577.75;;;11.95;100.00
72210;BME280;60113;48.762;12.302;2023-08-30T06:22:20;96583.00;;;11.95;100.00
72210;BME280;60113;48.762;12.302;2023-08-30T06:24:55;96582.16;;;11.95;100.00
72210;BME280;60113;48.762;12.302;2023-08-30T06:27:42;96572.47;;;11.95;100.00
72210;BME280;60113;48.762;12.302;2023-08-30T06:30:09;96577.59;;;11.97;100.00
72210;BME280;60113;48.762;12.302;2023-08-30T06:32:50;96580.75;;;12.00;100.00
72210;BME280;60113;48.762;12.302;2023-08-30T06:35:15;96572.44;;;12.05;100.00
72210;BME280;60113;48.762;12.302;2023-08-30T06:37:43;96572.44;;;12.15;100.00
72210;BME280;60113;48.762;12.302;2023-08-30T06:40:09;96581.41;;;12.22;100.00
72210;BME280;60113;48.762;12.302;2023-08-30T06:42:52;96581.81;;;12.28;100.00
72210;BME280;60113;48.762;12.302;2023-08-30T06:45:20;96579.56;;;12.33;100.00
72210;BME280;60113;48.762;12.302;2023-08-30T06:47:48;96579.53;;;12.43;100.00
72210;BME280;60113;48.762;12.302;2023-08-30T06:50:16;96579.50;;;12.53;100.00
72210;BME280;60113;48.762;12.302;2023-08-30T06:52:44;96591.66;;;12.63;100.00
72210;BME280;60113;48.762;12.302;2023-08-30T06:55:19;96587.16;;;12.74;100.00
72210;BME280;60113;48.762;12.302;2023-08-30T06:57:48;96571.97;;;12.86;100.00
72210;BME280;60113;48.762;12.302;2023-08-30T07:00:17;96580.59;;;13.06;100.00
72210;BME280;60113;48.762;12.302;2023-08-30T07:02:43;96572.22;;;13.29;100.00
72210;BME280;60113;48.762;12.302;2023-08-30T07:05:13;96572.47;;;13.54;100.00
72210;BME280;60113;48.762;12.302;2023-08-30T07:07:41;96569.97;;;13.71;100.00
72210;BME280;60113;48.762;12.302;2023-08-30T07:10:09;96565.44;;;13.81;100.00
72210;BME280;60113;48.762;12.302;2023-08-30T07:12:38;96562.69;;;13.91;100.00
72210;BME280;60113;48.762;12.302;2023-08-30T07:15:06;96566.56;;;14.05;100.00
72210;BME280;60113;48.762;12.302;2023-08-30T07:17:41;96560.28;;;14.33;100.00
72210;BME280;60113;48.762;12.302;2023-08-30T07:20:08;96558.38;;;14.52;100.00
72210;BME280;60113;48.762;12.302;2023-08-30T07:22:45;96557.09;;;14.64;100.00
72210;BME280;60113;48.762;12.302;2023-08-30T07:25:11;96557.63;;;14.76;100.00
72210;BME280;60113;48.762;12.302;2023-08-30T07:27:47;96559.72;;;14.99;100.00
72210;BME280;60113;48.762;12.302;2023-08-30T07:30:12;96557.56;;;15.03;100.00
72210;BME280;60113;48.762;12.302;2023-08-30T07:32:41;96553.47;;;15.08;100.00
72210;BME280;60113;48.762;12.302;2023-08-30T07:35:06;96557.59;;;15.28;100.00
72210;BME280;60113;48.762;12.302;2023-08-30T07:37:41;96558.13;;;15.31;100.00
72210;BME280;60113;48.762;12.302;2023-08-30T07:40:12;96563.09;;;15.34;100.00
72210;BME280;60113;48.762;12.302;2023-08-30T07:42:38;96569.72;;;15.47;100.00
72210;BME280;60113;48.762;12.302;2023-08-30T07:45:09;96572.34;;;15.80;100.00
72210;BME280;60113;48.762;12.302;2023-08-30T07:47:35;96564.38;;;16.05;100.00
72210;BME280;60113;48.762;12.302;2023-08-30T07:50:12;96563.75;;;16.52;100.00
72210;BME280;60113;48.762;12.302;2023-08-30T07:52:49;96567.84;;;16.71;97.26
72210;BME280;60113;48.762;12.302;2023-08-30T07:55:14;96559.44;;;16.59;100.00
72210;BME280;60113;48.762;12.302;2023-08-30T07:57:40;96562.94;;;16.51;100.00
72210;BME280;60113;48.762;12.302;2023-08-30T08:00:08;96564.06;;;16.17;100.00
72210;BME280;60113;48.762;12.302;2023-08-30T08:02:46;96558.25;;;15.88;100.00
72210;BME280;60113;48.762;12.302;2023-08-30T08:05:11;96562.44;;;15.57;100.00
72210;BME280;60113;48.762;12.302;2023-08-30T08:07:59;96564.72;;;15.35;100.00
72210;BME280;60113;48.762;12.302;2023-08-30T08:10:25;96562.09;;;15.44;100.00
72210;BME280;60113;48.762;12.302;2023-08-30T08:12:59;96558.28;;;15.71;100.00
72210;BME280;60113;48.762;12.302;2023-08-30T08:15:25;96554.47;;;16.07;100.00
72210;BME280;60113;48.762;12.302;2023-08-30T08:18:02;96560.56;;;16.24;100.00
72210;BME280;60113;48.762;12.302;2023-08-30T08:20:32;96562.69;;;16.29;100.00
72210;BME280;60113;48.762;12.302;2023-08-30T08:23:00;96563.22;;;16.08;100.00
72210;BME280;60113;48.762;12.302;2023-08-30T08:25:29;96559.44;;;15.85;100.00
72210;BME280;60113;48.762;12.302;2023-08-30T08:27:57;96570.38;;;15.66;100.00
72210;BME280;60113;48.762;12.302;2023-08-30T08:30:25;96563.59;;;15.80;100.00
72210;BME280;60113;48.762;12.302;2023-08-30T08:32:54;96568.34;;;16.18;100.00
72210;BME280;60113;48.762;12.302;2023-08-30T08:35:23;96566.88;;;16.64;100.00
72210;BME280;60113;48.762;12.302;2023-08-30T08:37:48;96564.81;;;17.06;100.00
72210;BME280;60113;48.762;12.302;2023-08-30T08:40:37;96565.81;;;17.36;100.00
72210;BME280;60113;48.762;12.302;2023-08-30T08:43:17;96562.91;;;17.70;100.00
72210;BME280;60113;48.762;12.302;2023-08-30T08:45:46;96559.94;;;18.03;100.00
72210;BME280;60113;48.762;12.302;2023-08-30T08:48:14;96552.66;;;18.51;100.00
72210;BME280;60113;48.762;12.302;2023-08-30T08:50:43;96551.75;;;18.95;100.00
72210;BME280;60113;48.762;12.302;2023-08-30T08:53:08;96555.00;;;18.91;100.00
72210;BME280;60113;48.762;12.302;2023-08-30T08:55:40;96554.03;;;18.61;100.00
72210;BME280;60113;48.762;12.302;2023-08-30T08:58:11;96556.50;;;18.33;100.00
72210;BME280;60113;48.762;12.302;2023-08-30T09:00:39;96566.63;;;17.99;100.00
72210;BME280;60113;48.762;12.302;2023-08-30T09:03:18;96565.09;;;17.43;100.00
72210;BME280;60113;48.762;12.302;2023-08-30T09:05:49;96561.59;;;16.87;90.33
72210;BME280;60113;48.762;12.302;2023-08-30T09:08:19;96562.59;;;16.94;99.27
72210;BME280;60113;48.762;12.302;2023-08-30T09:11:01;96562.75;;;16.93;98.42
72210;BME280;60113;48.762;12.302;2023-08-30T09:13:27;96564.72;;;16.99;98.96
72210;BME280;60113;48.762;12.302;2023-08-30T09:16:14;96562.34;;;17.12;93.67
72210;BME280;60113;48.762;12.302;2023-08-30T09:19:03;96557.13;;;17.43;96.36
72210;BME280;60113;48.762;12.302;2023-08-30T09:21:57;96552.94;;;17.72;98.54
72210;BME280;60113;48.762;12.302;2023-08-30T09:24:23;96556.47;;;17.87;97.96
72210;BME280;60113;48.762;12.302;2023-08-30T09:26:54;96556.41;;;18.11;97.98
72210;BME280;60113;48.762;12.302;2023-08-30T09:29:29;96555.69;;;18.17;100.00
72210;BME280;60113;48.762;12.302;2023-08-30T09:32:00;96550.97;;;18.04;96.63
72210;BME280;60113;48.762;12.302;2023-08-30T09:34:26;96560.03;;;17.95;98.43
72210;BME280;60113;48.762;12.302;2023-08-30T09:36:55;96552.41;;;17.77;96.58
72210;BME280;60113;48.762;12.302;2023-08-30T09:39:23;96550.81;;;17.67;90.69
72210;BME280;60113;48.762;12.302;2023-08-30T09:41:49;96541.91;;;17.98;96.09
72210;BME280;60113;48.762;12.302;2023-08-30T09:44:19;96544.22;;;18.32;90.19
72210;BME280;60113;48.762;12.302;2023-08-30T09:47:02;96545.75;;;18.71;90.76
72210;BME280;60113;48.762;12.302;2023-08-30T09:49:43;96544.66;;;19.03;91.66
72210;BME280;60113;48.762;12.302;2023-08-30T09:52:09;96535.88;;;19.46;98.53
72210;BME280;60113;48.762;12.302;2023-08-30T09:54:42;96531.38;;;19.68;96.25
72210;BME280;60113;48.762;12.302;2023-08-30T09:57:09;96529.97;;;20.01;94.20
72210;BME280;60113;48.762;12.302;2023-08-30T09:59:35;96542.75;;;20.06;93.03
72210;BME280;60113;48.762;12.302;2023-08-30T10:02:03;96531.81;;;20.01;95.17
72210;BME280;60113;48.762;12.302;2023-08-30T10:04:38;96538.16;;;19.71;92.38
72210;BME280;60113;48.762;12.302;2023-08-30T10:07:08;96538.25;;;19.34;89.72
72210;BME280;60113;48.762;12.302;2023-08-30T10:09:46;96536.34;;;18.91;92.03
72210;BME280;60113;48.762;12.302;2023-08-30T10:12:13;96536.69;;;18.66;90.79
72210;BME280;60113;48.762;12.302;2023-08-30T10:14:42;96534.97;;;18.43;89.99
72210;BME280;60113;48.762;12.302;2023-08-30T10:17:09;96533.31;;;18.27;89.45
72210;BME280;60113;48.762;12.302;2023-08-30T10:19:37;96530.09;;;18.16;87.93
72210;BME280;60113;48.762;12.302;2023-08-30T10:22:05;96534.59;;;18.16;89.10
72210;BME280;60113;48.762;12.302;2023-08-30T10:24:39;96518.81;;;18.14;81.78
72210;BME280;60113;48.762;12.302;2023-08-30T10:27:07;96522.31;;;18.30;89.26
72210;BME280;60113;48.762;12.302;2023-08-30T10:29:35;96523.88;;;18.54;90.15
72210;BME280;60113;48.762;12.302;2023-08-30T10:32:19;96522.34;;;18.82;81.13
72210;BME280;60113;48.762;12.302;2023-08-30T10:34:52;96511.38;;;19.29;90.18
72210;BME280;60113;48.762;12.302;2023-08-30T10:37:23;96513.19;;;19.79;90.92
72210;BME280;60113;48.762;12.302;2023-08-30T10:39:59;96513.16;;;20.01;81.19
72210;BME280;60113;48.762;12.302;2023-08-30T10:42:38;96511.31;;;20.01;89.60
72210;BME280;60113;48.762;12.302;2023-08-30T10:45:07;96512.47;;;19.92;85.96
72210;BME280;60113;48.762;12.302;2023-08-30T10:47:41;96505.00;;;19.80;86.48
72210;BME280;60113;48.762;12.302;2023-08-30T10:50:08;96517.50;;;19.51;87.62
72210;BME280;60113;48.762;12.302;2023-08-30T10:52:34;96517.22;;;19.17;87.32
72210;BME280;60113;48.762;12.302;2023-08-30T10:55:07;96521.03;;;18.78;86.40
72210;BME280;60113;48.762;12.302;2023-08-30T10:57:58;96525.53;;;18.25;80.60
72210;BME280;60113;48.762;12.302;2023-08-30T11:00:39;96529.47;;;17.75;83.46
72210;BME280;60113;48.762;12.302;2023-08-30T11:03:10;96525.72;;;17.31;85.09
72210;BME280;60113;48.762;12.302;2023-08-30T11:05:40;96531.19;;;16.98;86.86
72210;BME280;60113;48.762;12.302;2023-08-30T11:08:17;96539.53;;;16.63;85.74
72210;BME280;60113;48.762;12.302;2023-08-30T11:10:43;96536.63;;;16.41;86.31
72210;BME280;60113;48.762;12.302;2023-08-30T11:13:14;96543.63;;;16.25;86.49
72210;BME280;60113;48.762;12.302;2023-08-30T11:15:40;96533.72;;;16.19;86.31
72210;BME280;60113;48.762;12.302;2023-08-30T11:18:08;96534.22;;;16.15;86.88
72210;BME280;60113;48.762;12.302;2023-08-30T11:20:36;96532.41;;;16.15;86.92
72210;BME280;60113;48.762;12.302;2023-08-30T11:23:02;96527.59;;;16.19;86.43
72210;BME280;60113;48.762;12.302;2023-08-30T11:25:50;96527.41;;;16.29;86.90
72210;BME280;60113;48.762;12.302;2023-08-30T11:28:22;96522.72;;;16.39;83.50
72210;BME280;60113;48.762;12.302;2023-08-30T11:30:47;96521.69;;;16.48;85.57
72210;BME280;60113;48.762;12.302;2023-08-30T11:33:12;96524.78;;;16.60;86.85
72210;BME280;60113;48.762;12.302;2023-08-30T11:35:43;96525.06;;;16.74;86.92
72210;BME280;60113;48.762;12.302;2023-08-30T11:38:10;96529.66;;;16.80;86.98
72210;BME280;60113;48.762;12.302;2023-08-30T11:40:39;96532.94;;;16.82;86.88
72210;BME280;60113;48.762;12.302;2023-08-30T11:43:06;96526.78;;;16.90;86.89
72210;BME280;60113;48.762;12.302;2023-08-30T11:45:34;96519.59;;;16.99;86.51
72210;BME280;60113;48.762;12.302;2023-08-30T11:48:03;96523.38;;;17.05;87.65
72210;BME280;60113;48.762;12.302;2023-08-30T11:50:31;96517.06;;;17.06;87.23
72210;BME280;60113;48.762;12.302;2023-08-30T11:52:56;96515.41;;;17.13;87.98
72210;BME280;60113;48.762;12.302;2023-08-30T11:55:24;96522.47;;;17.21;88.26
72210;BME280;60113;48.762;12.302;2023-08-30T11:57:54;96522.88;;;17.33;88.42
72210;BME280;60113;48.762;12.302;2023-08-30T12:00:19;96521.28;;;17.47;89.20
72210;BME280;60113;48.762;12.302;2023-08-30T12:03:00;96502.19;;;17.67;89.19
72210;BME280;60113;48.762;12.302;2023-08-30T12:05:31;96505.31;;;17.85;88.79
72210;BME280;60113;48.762;12.302;2023-08-30T12:08:00;96499.81;;;17.87;86.52
72210;BME280;60113;48.762;12.302;2023-08-30T12:10:41;96503.41;;;17.94;86.91
72210;BME280;60113;48.762;12.302;2023-08-30T12:13:06;96503.69;;;17.99;87.26
72210;BME280;60113;48.762;12.302;2023-08-30T12:15:39;96503.31;;;18.03;86.71
72210;BME280;60113;48.762;12.302;2023-08-30T12:18:08;96507.72;;;17.95;87.27
72210;BME280;60113;48.762;12.302;2023-08-30T12:20:33;96497.91;;;17.96;87.52
72210;BME280;60113;48.762;12.302;2023-08-30T12:23:22;96501.75;;;17.93;84.76
72210;BME280;60113;48.762;12.302;2023-08-30T12:26:04;96504.94;;;17.73;81.63
72210;BME280;60113;48.762;12.302;2023-08-30T12:28:42;96505.94;;;17.72;87.04
72210;BME280;60113;48.762;12.302;2023-08-30T12:31:10;96499.63;;;17.73;85.83
72210;BME280;60113;48.762;12.302;2023-08-30T12:33:38;96500.00;;;17.70;84.12
72210;BME280;60113;48.762;12.302;2023-08-30T12:36:08;96500.59;;;17.57;84.28
72210;BME280;60113;48.762;12.302;2023-08-30T12:38:34;96498.00;;;17.49;83.73
72210;BME280;60113;48.762;12.302;2023-08-30T12:40:59;96496.38;;;17.48;84.31
72210;BME280;60113;48.762;12.302;2023-08-30T12:43:25;96498.84;;;17.49;84.70
72210;BME280;60113;48.762;12.302;2023-08-30T12:45:53;96488.34;;;17.56;85.00
72210;BME280;60113;48.762;12.302;2023-08-30T12:48:27;96488.72;;;17.83;84.78
72210;BME280;60113;48.762;12.302;2023-08-30T12:51:01;96484.44;;;18.12;85.73
72210;BME280;60113;48.762;12.302;2023-08-30T12:53:28;96485.19;;;18.36;85.50
72210;BME280;60113;48.762;12.302;2023-08-30T12:55:56;96477.16;;;18.52;84.86
72210;BME280;60113;48.762;12.302;2023-08-30T12:58:21;96474.41;;;18.60;84.72
72210;BME280;60113;48.762;12.302;2023-08-30T13:00:59;96476.84;;;18.77;84.92
72210;BME280;60113;48.762;12.302;2023-08-30T13:03:27;96476.28;;;18.81;84.72
72210;BME280;60113;48.762;12.302;2023-08-30T13:06:02;96468.94;;;18.83;81.23